Frankfort, Ohio
Current Conditions -  °F | °C
As of 11:34 PM on Saturday 25 Oct 2014 (Local Time) from KRZT Reporting Station
Clear Clear  
Wind Chill: 55°   Ceiling: Unl
Heat Index: 55°   Visibility: 10mi
Dew Point: 50°   Wind: 8mph
Humidity: 82%   Direction: 290°WNW
Pressure: 29.89"   Gusts: NA
Location:  39.4°N, 83.18°W
Report Text: KRZT 260334Z AUTO 29007KT 10SM CLR 13/10 A2989 RMK AO2
Loading
Personal Weather Stations






























Interactive Weather Map
Tropical Storm Tracking
New forecast layout! Learn more

10-Day Weather Forecast

Advertisements
Track Severe Weather on mobile